SAS4552 ENBO-ENTC

Flight info

Callsign SAS4552
Flight time 0h 42m
Altitude 27000
Route PENNO DCT ATWEG
Aircraft A320/M-SDE3FGHIRWY/LB1

Departure

Time 2026-04-20 18:01
Airport Bodø Airport (ENBO)

Arrival

Time 2026-04-20 18:44
Airport Tromsø Airport (ENTC)
Time Latitude Longitude Altitude Speed Heading
2026-04-20 17:54 67.27172 14.37019 41 ft 4 kts 292°
2026-04-20 17:54 67.27165 14.37066 44 ft 0 kts 292°
2026-04-20 17:56 67.27164 14.37037 45 ft 3 kts 251°
2026-04-20 17:56 67.27143 14.37056 45 ft 4 kts 131°
2026-04-20 17:56 67.27120 14.37123 50 ft 7 kts 131°
2026-04-20 17:57 67.27109 14.37277 53 ft 13 kts 79°
2026-04-20 17:57 67.27132 14.37548 53 ft 16 kts 77°
2026-04-20 17:57 67.27157 14.37843 57 ft 18 kts 78°
2026-04-20 17:57 67.27161 14.38140 51 ft 9 kts 90°
2026-04-20 17:58 67.27161 14.38172 52 ft 0 kts 90°
2026-04-20 17:59 67.27161 14.38180 53 ft 3 kts 90°
2026-04-20 18:00 67.27135 14.38362 53 ft 13 kts 140°
2026-04-20 18:00 67.27077 14.38364 54 ft 9 kts 250°
2026-04-20 18:00 67.27075 14.38347 54 ft 0 kts 253°
2026-04-20 18:00 67.27068 14.38268 52 ft 21 kts 257°
2026-04-20 18:01 67.26983 14.37247 45 ft 92 kts 258°
2026-04-20 18:01 67.26807 14.35144 35 ft 144 kts 258°
2026-04-20 18:01 67.26590 14.32436 379 ft 158 kts 258°
2026-04-20 18:01 67.26412 14.29562 964 ft 165 kts 263°
2026-04-20 18:02 67.26455 14.26486 1344 ft 185 kts 292°
2026-04-20 18:02 67.27367 14.23928 1595 ft 211 kts 332°
2026-04-20 18:02 67.28811 14.22436 1966 ft 235 kts 338°
2026-04-20 18:02 67.30364 14.20914 2764 ft 241 kts 337°
2026-04-20 18:03 67.31936 14.19357 3722 ft 242 kts 337°
2026-04-20 18:03 67.33514 14.17782 4693 ft 243 kts 337°
2026-04-20 18:03 67.35099 14.16188 5622 ft 245 kts 337°
2026-04-20 18:03 67.36700 14.14568 6531 ft 249 kts 337°
2026-04-20 18:04 67.38398 14.13555 7350 ft 256 kts 357°
2026-04-20 18:04 67.40170 14.14448 8136 ft 267 kts 21°
2026-04-20 18:04 67.41702 14.17377 8750 ft 284 kts 49°
2026-04-20 18:04 67.42841 14.21669 9510 ft 291 kts 54°
2026-04-20 18:05 67.45116 14.30676 10818 ft 310 kts 54°
2026-04-20 18:05 67.46344 14.35533 11021 ft 333 kts 54°
2026-04-20 18:05 67.47639 14.40660 11514 ft 343 kts 54°
2026-04-20 18:06 67.48962 14.45891 12165 ft 348 kts 54°
2026-04-20 18:06 67.50299 14.51197 12833 ft 352 kts 54°
2026-04-20 18:06 67.51652 14.56570 13513 ft 356 kts 54°
2026-04-20 18:06 67.53020 14.62008 14201 ft 360 kts 54°
2026-04-20 18:07 67.54401 14.67519 14803 ft 364 kts 54°
2026-04-20 18:07 67.55775 14.73029 15390 ft 368 kts 54°
2026-04-20 18:07 67.57178 14.78668 15995 ft 371 kts 54°
2026-04-20 18:07 67.58595 14.84345 16613 ft 373 kts 54°
2026-04-20 18:08 67.60111 14.90012 17229 ft 376 kts 51°
2026-04-20 18:08 67.61658 14.95454 17832 ft 378 kts 50°
2026-04-20 18:08 67.63263 15.00942 18447 ft 381 kts 50°
2026-04-20 18:08 67.64888 15.06481 19015 ft 384 kts 50°
2026-04-20 18:09 67.66519 15.12092 19553 ft 388 kts 50°
2026-04-20 18:09 67.68148 15.17783 20124 ft 391 kts 51°
2026-04-20 18:09 67.69777 15.23546 20676 ft 394 kts 51°
2026-04-20 18:09 67.71410 15.29372 21234 ft 397 kts 51°
2026-04-20 18:10 67.73052 15.35256 21780 ft 400 kts 51°
2026-04-20 18:10 67.74703 15.41189 22318 ft 403 kts 51°
2026-04-20 18:10 67.76367 15.47171 22852 ft 406 kts 51°
2026-04-20 18:10 67.78042 15.53202 23376 ft 409 kts 51°
2026-04-20 18:11 67.79725 15.59287 23923 ft 411 kts 51°
2026-04-20 18:11 67.81404 15.65388 24393 ft 411 kts 52°
2026-04-20 18:11 67.83093 15.71535 24846 ft 413 kts 51°
2026-04-20 18:11 67.84784 15.77702 25262 ft 415 kts 52°
2026-04-20 18:12 67.86486 15.83916 25665 ft 418 kts 52°
2026-04-20 18:12 67.88196 15.90179 26072 ft 420 kts 52°
2026-04-20 18:12 67.89908 15.96472 26475 ft 422 kts 52°
2026-04-20 18:12 67.91647 16.02791 26872 ft 424 kts 49°
2026-04-20 18:13 67.93641 16.08554 27255 ft 424 kts 40°
2026-04-20 18:13 67.95938 16.13429 27428 ft 419 kts 31°
2026-04-20 18:13 67.98411 16.17253 27452 ft 406 kts 25°
2026-04-20 18:13 68.00882 16.20820 27453 ft 403 kts 25°
2026-04-20 18:14 68.03339 16.24379 27457 ft 401 kts 26°
2026-04-20 18:14 68.05793 16.27945 27457 ft 401 kts 26°
2026-04-20 18:14 68.08233 16.31509 27447 ft 399 kts 26°
2026-04-20 18:14 68.10669 16.35089 27447 ft 398 kts 26°
2026-04-20 18:15 68.13090 16.38662 27449 ft 398 kts 26°
2026-04-20 18:15 68.15511 16.42254 27455 ft 398 kts 26°
2026-04-20 18:15 68.17933 16.45857 27442 ft 398 kts 26°
2026-04-20 18:15 68.20356 16.49473 27437 ft 398 kts 26°
2026-04-20 18:16 68.22782 16.53094 27438 ft 399 kts 26°
2026-04-20 18:16 68.25206 16.56713 27441 ft 399 kts 26°
2026-04-20 18:16 68.27634 16.60340 27443 ft 399 kts 26°
2026-04-20 18:16 68.30063 16.63976 27437 ft 399 kts 26°
2026-04-20 18:17 68.32490 16.67624 27437 ft 399 kts 26°
2026-04-20 18:17 68.34917 16.71279 27439 ft 399 kts 26°
2026-04-20 18:17 68.37342 16.74944 27456 ft 399 kts 26°
2026-04-20 18:17 68.39764 16.78607 27461 ft 398 kts 26°
2026-04-20 18:18 68.42147 16.82218 27464 ft 397 kts 27°
2026-04-20 18:18 68.44555 16.85884 27463 ft 396 kts 27°
2026-04-20 18:18 68.46957 16.89563 27452 ft 396 kts 27°
2026-04-20 18:18 68.49355 16.93244 27451 ft 395 kts 27°
2026-04-20 18:19 68.51751 16.96924 27448 ft 395 kts 27°
2026-04-20 18:19 68.54145 17.00600 27435 ft 395 kts 27°
2026-04-20 18:19 68.56538 17.04273 27435 ft 394 kts 27°
2026-04-20 18:19 68.58929 17.07958 27432 ft 394 kts 27°
2026-04-20 18:20 68.61318 17.11657 27434 ft 394 kts 27°
2026-04-20 18:20 68.63699 17.15358 27435 ft 394 kts 27°
2026-04-20 18:20 68.66089 17.19081 27440 ft 394 kts 27°
2026-04-20 18:20 68.68466 17.22789 27436 ft 393 kts 27°
2026-04-20 18:21 68.70851 17.26519 27437 ft 393 kts 27°
2026-04-20 18:21 68.73227 17.30248 27440 ft 393 kts 27°
2026-04-20 18:21 68.75600 17.33983 27432 ft 393 kts 28°
2026-04-20 18:21 68.77970 17.37724 27428 ft 392 kts 28°
2026-04-20 18:22 68.80334 17.41465 27432 ft 392 kts 28°
2026-04-20 18:22 68.82707 17.45219 27428 ft 392 kts 27°
2026-04-20 18:22 68.85075 17.48966 27423 ft 392 kts 27°
2026-04-20 18:22 68.87441 17.52720 27426 ft 392 kts 28°
2026-04-20 18:23 68.89804 17.56486 27418 ft 392 kts 28°
2026-04-20 18:23 68.92157 17.60248 27309 ft 389 kts 28°
2026-04-20 18:23 68.94482 17.63980 27046 ft 381 kts 28°
2026-04-20 18:23 68.96763 17.67662 26672 ft 379 kts 27°
2026-04-20 18:24 68.99040 17.71343 26263 ft 377 kts 27°
2026-04-20 18:24 69.01306 17.75010 25867 ft 376 kts 27°
2026-04-20 18:24 69.03564 17.78670 25447 ft 375 kts 27°
2026-04-20 18:24 69.05864 17.82045 25021 ft 371 kts 19°
2026-04-20 18:25 69.08311 17.84178 24614 ft 367 kts
2026-04-20 18:25 69.10819 17.85351 24186 ft 365 kts
2026-04-20 18:25 69.13323 17.86493 23731 ft 364 kts
2026-04-20 18:25 69.15816 17.87647 23276 ft 362 kts
2026-04-20 18:26 69.18286 17.88807 22854 ft 358 kts
2026-04-20 18:26 69.20730 17.89958 22429 ft 355 kts
2026-04-20 18:26 69.23155 17.91099 22005 ft 352 kts
2026-04-20 18:26 69.25551 17.92228 21586 ft 348 kts
2026-04-20 18:27 69.27931 17.93349 21181 ft 345 kts
2026-04-20 18:27 69.30292 17.94460 20748 ft 343 kts
2026-04-20 18:27 69.32635 17.95563 20334 ft 340 kts
2026-04-20 18:27 69.34959 17.96652 19922 ft 337 kts
2026-04-20 18:28 69.37266 17.97743 19510 ft 335 kts
2026-04-20 18:28 69.39519 17.99488 19095 ft 338 kts 18°
2026-04-20 18:28 69.41647 18.02348 18661 ft 338 kts 22°
2026-04-20 18:28 69.43752 18.05312 18212 ft 336 kts 22°
2026-04-20 18:29 69.45812 18.08203 17801 ft 334 kts 21°
2026-04-20 18:29 69.47885 18.11114 17391 ft 331 kts 21°
2026-04-20 18:29 69.49941 18.14011 16972 ft 328 kts 21°
2026-04-20 18:29 69.51979 18.16896 16576 ft 326 kts 21°
2026-04-20 18:30 69.54003 18.19765 16163 ft 323 kts 21°
2026-04-20 18:30 69.56009 18.22615 15760 ft 322 kts 21°
2026-04-20 18:30 69.58011 18.25460 15349 ft 320 kts 21°
2026-04-20 18:30 69.60004 18.28295 14923 ft 319 kts 21°
2026-04-20 18:31 69.61992 18.31128 14489 ft 319 kts 20°
2026-04-20 18:31 69.63948 18.33933 14028 ft 309 kts 20°
2026-04-20 18:31 69.65834 18.36659 13540 ft 299 kts 20°
2026-04-20 18:31 69.67659 18.39304 13058 ft 289 kts 20°
2026-04-20 18:32 69.69429 18.41871 12585 ft 281 kts 20°
2026-04-20 18:32 69.71158 18.44369 12117 ft 275 kts 20°
2026-04-20 18:32 69.72847 18.46805 11656 ft 268 kts 19°
2026-04-20 18:32 69.74495 18.49186 11203 ft 262 kts 19°
2026-04-20 18:33 69.76115 18.51530 10757 ft 259 kts 19°
2026-04-20 18:33 69.77719 18.53851 10308 ft 258 kts 19°
2026-04-20 18:33 69.79317 18.56164 9822 ft 256 kts 19°
2026-04-20 18:33 69.80903 18.58463 9339 ft 254 kts 19°
2026-04-20 18:34 69.82470 18.60749 8856 ft 251 kts 19°
2026-04-20 18:34 69.84022 18.63023 8387 ft 249 kts 19°
2026-04-20 18:34 69.85563 18.65291 7922 ft 248 kts 20°
2026-04-20 18:34 69.87101 18.67554 7451 ft 248 kts 20°
2026-04-20 18:35 69.88639 18.69815 7008 ft 247 kts 20°
2026-04-20 18:35 69.90167 18.72063 6566 ft 245 kts 19°
2026-04-20 18:35 69.91685 18.74297 6102 ft 245 kts 20°
2026-04-20 18:35 69.93232 18.76571 5645 ft 254 kts 21°
2026-04-20 18:36 69.94656 18.79799 5166 ft 269 kts 47°
2026-04-20 18:36 69.95287 18.82960 4846 ft 277 kts 67°
2026-04-20 18:36 69.95520 18.88528 4495 ft 275 kts 99°
2026-04-20 18:36 69.95134 18.93784 4485 ft 260 kts 104°
2026-04-20 18:37 69.94726 18.98741 4464 ft 240 kts 111°
2026-04-20 18:37 69.93949 19.02833 4489 ft 226 kts 137°
2026-04-20 18:37 69.92814 19.05519 4486 ft 196 kts 162°
2026-04-20 18:37 69.91645 19.06740 4461 ft 164 kts 182°
2026-04-20 18:38 69.90588 19.06860 4484 ft 143 kts 199°
2026-04-20 18:38 69.89636 19.06279 4494 ft 138 kts 205°
2026-04-20 18:38 69.88700 19.05639 4491 ft 138 kts 205°
2026-04-20 18:38 69.87767 19.05005 4462 ft 136 kts 203°
2026-04-20 18:39 69.86872 19.04397 4475 ft 128 kts 205°
2026-04-20 18:39 69.85970 19.03776 4457 ft 136 kts 204°
2026-04-20 18:39 69.85019 19.03127 4367 ft 143 kts 203°
2026-04-20 18:39 69.84056 19.02477 4183 ft 141 kts 202°
2026-04-20 18:40 69.83122 19.01849 3946 ft 136 kts 202°
2026-04-20 18:40 69.82207 19.01229 3703 ft 134 kts 202°
2026-04-20 18:40 69.81300 19.00614 3456 ft 134 kts 202°
2026-04-20 18:40 69.80393 19.00000 3209 ft 134 kts 201°
2026-04-20 18:41 69.79483 18.99385 2974 ft 134 kts 202°
2026-04-20 18:41 69.78581 18.98777 2727 ft 133 kts 203°
2026-04-20 18:41 69.77685 18.98173 2478 ft 132 kts 202°
2026-04-20 18:41 69.76795 18.97573 2237 ft 131 kts 202°
2026-04-20 18:42 69.75906 18.96974 1986 ft 132 kts 201°
2026-04-20 18:42 69.75012 18.96372 1737 ft 133 kts 200°
2026-04-20 18:42 69.74112 18.95766 1490 ft 133 kts 200°
2026-04-20 18:42 69.73215 18.95164 1232 ft 133 kts 201°
2026-04-20 18:43 69.72315 18.94561 969 ft 133 kts 201°
2026-04-20 18:43 69.71407 18.93951 710 ft 134 kts 200°
2026-04-20 18:43 69.70504 18.93348 469 ft 132 kts 200°
2026-04-20 18:43 69.69620 18.92751 221 ft 130 kts 200°
2026-04-20 18:44 69.68748 18.92175 29 ft 127 kts 199°
2026-04-20 18:44 69.68077 18.91704 35 ft 59 kts 192°
2026-04-20 18:44 69.67803 18.91533 41 ft 17 kts 192°
2026-04-20 18:44 69.67729 18.91409 39 ft 13 kts 270°
2026-04-20 18:45 69.67745 18.91210 35 ft 9 kts 289°
2026-04-20 18:45 69.67807 18.91156 35 ft 12 kts 14°
2026-04-20 18:45 69.67898 18.91212 35 ft 15 kts 14°
2026-04-20 18:45 69.68008 18.91286 35 ft 13 kts 13°
2026-04-20 18:46 69.68027 18.91257 34 ft 3 kts 291°
2026-04-20 18:46 69.68035 18.91155 35 ft 7 kts 282°
2026-04-20 18:46 69.68049 18.90992 34 ft 6 kts 283°
2026-04-20 18:46 69.68051 18.90970 34 ft 0 kts 283°